Alma, Nebraska
Current Conditions -  °F | °C
As of 11:35 AM on Monday 22 Dec 2014 (Local Time) from KHDE Reporting Station
Scattered Clouds Scattered Clouds  
Wind Chill: 38°   Ceiling: Unl
Heat Index: 45°   Visibility: 10mi
Dew Point: 34°   Wind: 15mph
Humidity: 64%   Direction: 310°NW
Pressure: 29.55"   Gusts: 21mph
Location:  40.1°N, 99.36°W
Report Text: KHDE 221735Z AUTO 31013G18KT 10SM SCT120 07/01 A2955 RMK AO2 T00720009
Loading
Personal Weather Stations






























Interactive Weather Map New forecast layout! Learn more

10-Day Weather Forecast

Advertisements
Track Severe Weather on mobile